createdAt,value
2019-04-29T00:01:31.279Z,76.20
2019-04-29T00:03:59.733Z,76.00
2019-04-29T00:06:28.234Z,77.00
2019-04-29T00:08:56.685Z,76.80
2019-04-29T00:11:25.393Z,76.70
2019-04-29T00:13:54.174Z,77.30
2019-04-29T00:16:42.231Z,76.50
2019-04-29T00:19:18.187Z,77.50
2019-04-29T00:21:46.655Z,76.70
2019-04-29T00:24:15.166Z,78.00
2019-04-29T00:26:43.931Z,76.40
2019-04-29T00:29:12.722Z,78.70
2019-04-29T00:31:41.177Z,78.40
2019-04-29T00:34:09.593Z,77.90
2019-04-29T00:36:42.436Z,78.00
2019-04-29T00:39:12.908Z,76.90
2019-04-29T00:41:57.914Z,77.40
2019-04-29T00:44:26.417Z,78.40
2019-04-29T00:46:54.865Z,77.70
2019-04-29T00:49:23.288Z,76.20
2019-04-29T00:51:51.761Z,77.30
2019-04-29T00:54:25.027Z,76.60
2019-04-29T00:56:53.801Z,77.50
2019-04-29T00:59:22.250Z,77.80
2019-04-29T01:01:50.685Z,77.60
2019-04-29T01:04:19.459Z,77.50
2019-04-29T01:06:48.153Z,77.00
2019-04-29T01:09:16.728Z,77.10
2019-04-29T01:11:45.162Z,77.40
2019-04-29T01:14:13.598Z,77.10
2019-04-29T01:16:42.046Z,77.20
2019-04-29T01:19:10.478Z,77.50
2019-04-29T01:21:38.929Z,77.50
2019-04-29T01:24:07.661Z,77.70
2019-04-29T01:26:47.075Z,77.20
2019-04-29T01:29:19.849Z,76.40
2019-04-29T01:31:51.146Z,78.00
2019-04-29T01:34:21.220Z,78.30
2019-04-29T01:36:49.711Z,77.70
2019-04-29T01:39:18.201Z,77.60
2019-04-29T01:41:54.687Z,77.70
2019-04-29T01:44:24.839Z,77.60
2019-04-29T01:46:53.265Z,76.90
2019-04-29T01:49:21.709Z,78.20
2019-04-29T01:51:50.384Z,78.40
2019-04-29T01:54:19.173Z,78.80
2019-04-29T01:56:50.420Z,78.20
2019-04-29T01:59:18.931Z,78.50
2019-04-29T02:01:47.359Z,79.00
2019-04-29T02:04:16.149Z,78.10
2019-04-29T02:06:44.917Z,78.10
2019-04-29T02:09:15.306Z,78.20
2019-04-29T02:11:43.728Z,78.10
2019-04-29T02:14:12.180Z,77.90
2019-04-29T02:16:40.609Z,77.80
2019-04-29T02:19:09.101Z,77.80
2019-04-29T02:21:37.837Z,77.50
2019-04-29T02:24:13.603Z,77.80
2019-04-29T02:26:42.052Z,77.70
2019-04-29T02:29:10.553Z,78.80
2019-04-29T02:31:40.413Z,80.00
2019-04-29T02:34:09.691Z,80.90
2019-04-29T02:36:38.712Z,80.70
2019-04-29T02:39:26.409Z,80.40
2019-04-29T02:41:56.945Z,80.30
2019-04-29T02:44:25.373Z,80.00
2019-04-29T02:46:53.823Z,79.00
2019-04-29T02:49:22.250Z,79.30
2019-04-29T02:51:52.322Z,79.30
2019-04-29T02:54:21.484Z,80.60
2019-04-29T02:56:57.790Z,81.00
2019-04-29T02:59:30.535Z,81.30
2019-04-29T03:02:16.040Z,81.90
2019-04-29T03:04:52.225Z,82.10
2019-04-29T03:07:21.588Z,82.10
2019-04-29T03:09:50.106Z,81.60
2019-04-29T03:12:18.786Z,81.00
2019-04-29T03:14:47.372Z,81.80
2019-04-29T03:17:18.671Z,80.80
2019-04-29T03:20:04.102Z,80.80
2019-04-29T03:22:32.870Z,81.90
2019-04-29T03:25:01.314Z,82.20
2019-04-29T03:27:29.814Z,82.90
2019-04-29T03:29:58.282Z,81.60
2019-04-29T03:32:26.738Z,80.70
2019-04-29T03:34:55.526Z,80.80
2019-04-29T03:37:24.322Z,80.10
2019-04-29T03:39:53.120Z,80.60
2019-04-29T03:42:21.587Z,79.80
2019-04-29T03:44:50.492Z,79.10
2019-04-29T03:47:19.336Z,79.80
2019-04-29T03:49:48.023Z,79.70
2019-04-29T03:52:16.576Z,79.20
2019-04-29T03:54:45.074Z,79.20
2019-04-29T03:57:15.594Z,78.10
2019-04-29T03:59:44.103Z,78.70
2019-04-29T04:02:35.544Z,78.80
2019-04-29T04:05:10.340Z,79.80
2019-04-29T04:07:39.635Z,78.90
2019-04-29T04:10:08.513Z,78.50
2019-04-29T04:12:37.310Z,79.50
2019-04-29T04:15:09.173Z,79.30
2019-04-29T04:17:39.243Z,79.20
2019-04-29T04:20:08.307Z,77.90
2019-04-29T04:22:46.950Z,79.20
2019-04-29T04:25:18.873Z,79.60
2019-04-29T04:27:50.007Z,80.50
2019-04-29T04:30:19.429Z,80.40
2019-04-29T04:32:47.923Z,80.60
2019-04-29T04:35:16.487Z,80.00
2019-04-29T04:37:44.944Z,79.30
2019-04-29T04:40:19.006Z,79.40
2019-04-29T04:42:47.570Z,79.70
2019-04-29T04:45:16.692Z,79.70
2019-04-29T04:47:45.141Z,80.30
2019-04-29T04:50:14.176Z,79.00
2019-04-29T04:52:42.610Z,80.60
2019-04-29T04:55:11.755Z,81.80
2019-04-29T04:57:40.581Z,81.30
2019-04-29T05:00:10.991Z,82.40
2019-04-29T05:02:39.775Z,81.50
2019-04-29T05:05:08.553Z,81.30
2019-04-29T05:07:37.083Z,81.60
2019-04-29T05:10:08.577Z,80.40
2019-04-29T05:12:37.062Z,79.00
2019-04-29T05:15:05.634Z,79.20
2019-04-29T05:17:34.372Z,77.40
2019-04-29T05:20:02.807Z,76.10
2019-04-29T05:22:31.552Z,76.30
2019-04-29T05:25:00.000Z,78.10
2019-04-29T05:27:28.430Z,76.80
2019-04-29T05:29:56.877Z,77.00
2019-04-29T05:32:25.309Z,77.30
2019-04-29T05:34:55.722Z,77.60
2019-04-29T05:37:35.082Z,78.00
2019-04-29T05:40:05.809Z,77.10
2019-04-29T05:42:34.589Z,77.30
2019-04-29T05:45:13.606Z,78.50
2019-04-29T05:47:52.338Z,78.20
2019-04-29T05:50:30.853Z,77.40
2019-04-29T05:53:04.109Z,77.50
2019-04-29T05:55:32.839Z,78.20
2019-04-29T05:58:03.959Z,77.70
2019-04-29T06:00:32.517Z,78.60
2019-04-29T06:03:00.950Z,79.60
2019-04-29T06:05:29.769Z,78.50
2019-04-29T06:08:01.185Z,78.00
2019-04-29T06:10:28.689Z,77.00
2019-04-29T06:12:57.136Z,77.20
2019-04-29T06:15:25.841Z,77.60
2019-04-29T06:17:54.841Z,76.40
2019-04-29T06:20:23.411Z,77.30
2019-04-29T06:22:51.860Z,78.80
2019-04-29T06:25:20.304Z,79.10
2019-04-29T06:27:48.817Z,79.00
2019-04-29T06:30:17.377Z,78.50
2019-04-29T06:32:45.844Z,77.90
2019-04-29T06:35:15.319Z,77.00
2019-04-29T06:37:43.881Z,76.10
2019-04-29T06:40:12.398Z,74.30
2019-04-29T06:42:41.151Z,73.40
2019-04-29T06:45:09.836Z,72.60
2019-04-29T06:47:38.628Z,71.80
2019-04-29T06:50:07.721Z,73.90
2019-04-29T06:52:36.510Z,75.60
2019-04-29T06:55:05.802Z,75.20
2019-04-29T06:57:34.505Z,74.60
2019-04-29T07:00:03.944Z,75.40
2019-04-29T07:02:32.617Z,75.80
2019-04-29T07:05:01.040Z,75.60
2019-04-29T07:07:29.496Z,76.00
2019-04-29T07:09:57.929Z,77.90
2019-04-29T07:12:26.378Z,78.00
2019-04-29T07:14:55.140Z,77.90
2019-04-29T07:17:23.932Z,77.70
2019-04-29T07:19:52.371Z,77.30
2019-04-29T07:22:25.440Z,77.20
2019-04-29T07:28:32.178Z,76.80
2019-04-29T07:31:02.854Z,76.80
2019-04-29T07:33:31.148Z,75.70
2019-04-29T07:36:10.265Z,75.70
2019-04-29T07:38:40.703Z,76.30
2019-04-29T07:40:59.927Z,73.80
2019-04-29T07:43:28.376Z,72.70
2019-04-29T07:46:10.478Z,71.40
2019-04-29T07:48:41.972Z,69.10
2019-04-29T07:51:09.834Z,69.10
2019-04-29T07:53:45.018Z,69.20
2019-04-29T07:56:08.440Z,69.10
2019-04-29T07:58:36.903Z,68.30
2019-04-29T08:01:06.039Z,68.50
2019-04-29T08:03:34.594Z,68.50
2019-04-29T08:06:03.717Z,69.00
2019-04-29T08:08:33.195Z,68.80
2019-04-29T08:11:01.724Z,66.50
2019-04-29T08:13:32.100Z,68.40
2019-04-29T08:16:00.572Z,68.40
2019-04-29T08:18:29.326Z,68.30
2019-04-29T08:20:57.848Z,67.00
2019-04-29T08:23:26.602Z,66.50
2019-04-29T08:25:57.510Z,67.00
2019-04-29T08:28:25.517Z,65.90
2019-04-29T08:30:53.963Z,64.50
2019-04-29T08:33:22.798Z,63.40
2019-04-29T08:35:51.231Z,63.00
2019-04-29T08:38:19.691Z,64.30
2019-04-29T08:40:50.017Z,64.60
2019-04-29T08:43:36.663Z,66.00
2019-04-29T08:46:09.458Z,65.10
2019-04-29T08:48:37.908Z,64.60
2019-04-29T08:51:06.335Z,63.50
2019-04-29T08:53:34.847Z,62.30
2019-04-29T08:56:05.639Z,61.80
2019-04-29T08:58:33.863Z,59.80
2019-04-29T09:01:02.295Z,60.60
2019-04-29T09:03:40.115Z,60.80
2019-04-29T09:06:05.583Z,61.30
2019-04-29T09:08:32.812Z,62.20
2019-04-29T09:11:01.560Z,62.40
2019-04-29T09:13:29.987Z,60.00
2019-04-29T09:15:58.445Z,62.00
2019-04-29T09:18:27.283Z,66.10
2019-04-29T09:20:55.741Z,65.90
2019-04-29T09:23:26.091Z,68.30
2019-04-29T09:26:03.059Z,65.10
2019-04-29T09:28:32.060Z,66.30
2019-04-29T09:31:00.862Z,64.80
2019-04-29T09:33:29.306Z,64.50
2019-04-29T09:35:57.785Z,66.70
2019-04-29T09:38:26.216Z,64.30
2019-04-29T09:40:59.663Z,64.00
2019-04-29T09:43:28.401Z,63.00
2019-04-29T09:46:07.122Z,61.40
2019-04-29T09:48:35.857Z,62.80
2019-04-29T09:51:16.634Z,59.20
2019-04-29T09:53:34.839Z,58.80
2019-04-29T09:56:04.187Z,59.10
2019-04-29T09:58:32.652Z,59.20
2019-04-29T10:01:20.828Z,59.70
2019-04-29T10:03:56.818Z,60.60
2019-04-29T10:06:27.248Z,60.50
2019-04-29T10:08:55.716Z,58.70
2019-04-29T10:11:24.426Z,59.10
2019-04-29T10:13:53.420Z,62.00
2019-04-29T10:16:27.130Z,62.20
2019-04-29T10:19:04.748Z,59.60
2019-04-29T10:21:30.735Z,60.00
2019-04-29T10:23:59.161Z,59.40
2019-04-29T10:26:27.680Z,58.80
2019-04-29T10:29:03.885Z,58.20
2019-04-29T10:31:32.395Z,57.50
2019-04-29T10:34:00.835Z,58.40
2019-04-29T10:36:29.851Z,60.00
2019-04-29T10:39:00.285Z,61.00
2019-04-29T10:41:30.718Z,60.80
2019-04-29T10:44:07.005Z,61.40
2019-04-29T10:46:40.011Z,62.00
2019-04-29T10:49:22.061Z,60.60
2019-04-29T10:51:50.857Z,59.70
2019-04-29T10:54:19.651Z,61.10
2019-04-29T10:56:49.424Z,64.30
2019-04-29T10:59:17.939Z,64.00
2019-04-29T11:02:13.408Z,62.70
2019-04-29T11:04:38.017Z,64.90
2019-04-29T11:07:14.212Z,65.00
2019-04-29T11:09:54.204Z,65.60
2019-04-29T11:12:22.701Z,66.50
2019-04-29T11:14:51.448Z,63.80
2019-04-29T11:17:22.479Z,65.10
2019-04-29T11:19:51.390Z,66.80
2019-04-29T11:22:21.553Z,72.80
2019-04-29T11:24:51.943Z,68.20
2019-04-29T11:27:22.029Z,72.00
2019-04-29T11:29:50.470Z,66.90
2019-04-29T11:32:32.824Z,64.60
2019-04-29T11:35:15.193Z,63.80
2019-04-29T11:37:43.945Z,62.20
2019-04-29T11:40:12.593Z,60.00
2019-04-29T11:42:41.872Z,60.00
2019-04-29T11:45:13.708Z,62.80
2019-04-29T11:47:42.601Z,60.60
2019-04-29T11:50:18.677Z,64.80
2019-04-29T11:52:47.549Z,63.00
2019-04-29T11:55:18.405Z,64.10
2019-04-29T11:57:48.563Z,64.80
2019-04-29T12:00:36.097Z,61.80
2019-04-29T12:03:08.977Z,62.40
2019-04-29T12:05:40.134Z,62.60
2019-04-29T12:08:16.342Z,57.80
2019-04-29T12:10:46.885Z,60.80
2019-04-29T12:13:12.198Z,59.10
2019-04-29T12:15:54.294Z,57.30
2019-04-29T12:18:24.443Z,59.60
2019-04-29T12:20:56.996Z,60.50
2019-04-29T12:23:25.873Z,58.90
2019-04-29T12:25:54.319Z,58.40
2019-04-29T12:28:23.060Z,56.80
2019-04-29T12:30:53.148Z,55.80
2019-04-29T12:33:23.235Z,56.20
2019-04-29T12:35:53.721Z,56.10
2019-04-29T12:38:39.836Z,57.20
2019-04-29T12:41:20.670Z,58.60
2019-04-29T12:43:59.201Z,55.00
2019-04-29T12:46:26.711Z,55.30
2019-04-29T12:48:55.190Z,52.20
2019-04-29T12:51:23.939Z,54.30
2019-04-29T12:53:52.728Z,54.20
2019-04-29T12:56:25.965Z,53.50
2019-04-29T12:58:55.277Z,52.80
2019-04-29T13:01:51.300Z,52.00
2019-04-29T13:04:18.704Z,52.60
2019-04-29T13:07:06.620Z,53.30
2019-04-29T13:09:38.907Z,52.40
2019-04-29T13:12:19.078Z,53.00
2019-04-29T13:14:39.270Z,53.90
2019-04-29T13:17:15.235Z,52.80
2019-04-29T13:19:50.294Z,54.10
2019-04-29T13:22:17.102Z,53.10
2019-04-29T13:24:46.006Z,51.20
2019-04-29T13:27:16.316Z,51.90
2019-04-29T13:29:45.112Z,51.30
2019-04-29T13:32:13.565Z,53.00
2019-04-29T13:34:43.926Z,51.70
2019-04-29T13:37:18.620Z,52.70
2019-04-29T13:39:43.057Z,52.70
2019-04-29T13:42:15.620Z,51.50
2019-04-29T13:44:50.454Z,52.30
2019-04-29T13:47:19.966Z,52.20
2019-04-29T13:49:50.426Z,53.20
2019-04-29T13:52:19.394Z,53.60
2019-04-29T13:54:48.184Z,50.10
2019-04-29T13:57:17.010Z,53.00
2019-04-29T13:59:50.568Z,53.60
2019-04-29T14:02:33.392Z,56.20
2019-04-29T14:05:02.296Z,57.70
2019-04-29T14:07:30.988Z,57.10
2019-04-29T14:09:59.421Z,58.70
2019-04-29T14:13:09.214Z,60.30
2019-04-29T14:15:00.117Z,61.70
2019-04-29T14:17:31.804Z,59.40
2019-04-29T14:19:59.212Z,57.10
2019-04-29T14:22:27.943Z,56.40
2019-04-29T14:24:56.395Z,56.60
2019-04-29T14:27:25.596Z,61.20
2019-04-29T14:29:54.625Z,65.30
2019-04-29T14:32:36.122Z,63.10
2019-04-29T14:35:01.520Z,58.80
2019-04-29T14:37:29.957Z,59.70
2019-04-29T14:40:02.663Z,58.60
2019-04-29T14:42:31.947Z,57.80
2019-04-29T14:45:11.343Z,54.20
2019-04-29T14:47:41.782Z,51.80
2019-04-29T14:50:15.705Z,52.30
2019-04-29T14:52:44.685Z,51.90
2019-04-29T14:55:14.864Z,52.40
2019-04-29T14:57:43.617Z,53.50
2019-04-29T15:00:14.313Z,51.60
2019-04-29T15:03:04.916Z,50.80
2019-04-29T15:05:33.803Z,51.10
2019-04-29T15:08:02.488Z,48.90
2019-04-29T15:10:32.932Z,46.50
2019-04-29T15:13:19.326Z,47.60
2019-04-29T15:16:03.707Z,45.80
2019-04-29T15:18:47.121Z,45.00
2019-04-29T15:21:08.278Z,42.20
2019-04-29T15:23:37.415Z,43.60
2019-04-29T15:26:05.853Z,44.10
2019-04-29T15:28:36.253Z,45.40
2019-04-29T15:31:08.007Z,44.10
2019-04-29T15:33:35.808Z,45.00
2019-04-29T15:36:04.377Z,44.90
2019-04-29T15:38:33.148Z,46.40
2019-04-29T15:41:05.141Z,46.20
2019-04-29T15:43:46.526Z,45.70
2019-04-29T15:46:06.706Z,47.40
2019-04-29T15:48:32.740Z,49.70
2019-04-29T15:51:01.365Z,48.60
2019-04-29T15:53:33.859Z,49.10
2019-04-29T15:56:08.590Z,50.30
2019-04-29T15:58:30.346Z,50.80
2019-04-29T16:01:13.210Z,50.30
2019-04-29T16:03:29.296Z,50.00
2019-04-29T16:06:20.546Z,50.30
2019-04-29T16:08:52.636Z,48.70
2019-04-29T16:11:41.057Z,50.50
2019-04-29T16:14:11.121Z,52.30
2019-04-29T16:17:10.493Z,52.00
2019-04-29T16:19:39.289Z,51.30
2019-04-29T16:22:13.040Z,51.80
2019-04-29T16:24:38.737Z,51.30
2019-04-29T16:27:10.348Z,52.50
2019-04-29T16:29:37.504Z,54.00
2019-04-29T16:32:07.607Z,54.20
2019-04-29T16:34:37.597Z,53.70
2019-04-29T16:37:06.671Z,53.40
2019-04-29T16:39:35.470Z,53.30
2019-04-29T16:42:08.966Z,52.70
2019-04-29T16:44:37.820Z,52.40
2019-04-29T16:47:13.075Z,52.90
2019-04-29T16:49:38.149Z,52.80
2019-04-29T16:52:06.933Z,54.20
2019-04-29T16:54:35.424Z,55.80
2019-04-29T16:57:03.925Z,55.50
2019-04-29T16:59:32.376Z,56.10
2019-04-29T17:02:00.886Z,54.80
2019-04-29T17:04:29.338Z,53.90
2019-04-29T17:07:11.634Z,56.70
2019-04-29T17:09:45.341Z,55.00
2019-04-29T17:12:14.133Z,56.00
2019-04-29T17:15:03.063Z,58.40
2019-04-29T17:17:14.380Z,58.20
2019-04-29T17:19:42.813Z,60.00
2019-04-29T17:22:25.485Z,60.80
2019-04-29T17:24:41.814Z,61.90
2019-04-29T17:27:20.894Z,62.60
2019-04-29T17:30:03.379Z,62.50
2019-04-29T17:32:48.490Z,63.90
2019-04-29T17:35:21.337Z,64.30
2019-04-29T17:37:46.534Z,65.00
2019-04-29T17:40:17.010Z,66.60
2019-04-29T17:42:47.123Z,66.70
2019-04-29T17:45:27.154Z,66.40
2019-04-29T17:47:52.635Z,66.40
2019-04-29T17:50:30.541Z,66.90
2019-04-29T17:52:58.845Z,67.80
2019-04-29T17:55:45.350Z,68.50
2019-04-29T17:58:19.431Z,68.40
2019-04-29T18:00:55.595Z,68.40
2019-04-29T18:03:34.795Z,69.20
2019-04-29T18:06:06.717Z,69.50
2019-04-29T18:08:49.151Z,69.90
2019-04-29T18:11:17.609Z,69.90
2019-04-29T18:13:46.314Z,70.20
2019-04-29T18:16:19.081Z,71.00
2019-04-29T18:18:53.487Z,71.10
2019-04-29T18:21:43.143Z,70.90
2019-04-29T18:24:09.147Z,71.20
2019-04-29T18:26:48.099Z,71.00
2019-04-29T18:29:16.184Z,71.50
2019-04-29T18:31:46.494Z,71.30
2019-04-29T18:34:15.387Z,71.40
2019-04-29T18:36:45.675Z,71.10
2019-04-29T18:39:19.970Z,71.60
2019-04-29T18:41:46.296Z,72.00
2019-04-29T18:44:19.230Z,72.70
2019-04-29T18:46:53.104Z,72.70
2019-04-29T18:49:15.943Z,71.90
2019-04-29T18:51:45.587Z,71.30
2019-04-29T18:54:14.151Z,72.20
2019-04-29T18:56:42.616Z,74.00
2019-04-29T18:59:11.053Z,74.50
2019-04-29T19:01:39.582Z,74.00
2019-04-29T19:04:25.476Z,75.10
2019-04-29T19:06:59.119Z,73.70
2019-04-29T19:09:25.903Z,74.50
2019-04-29T19:11:55.321Z,73.80
2019-04-29T19:14:25.588Z,72.10
2019-04-29T19:17:00.044Z,70.00
2019-04-29T19:19:25.358Z,71.50
2019-04-29T19:21:55.774Z,70.80
2019-04-29T19:24:24.078Z,69.40
2019-04-29T19:26:55.625Z,69.20
2019-04-29T19:29:22.921Z,69.30
2019-04-29T19:31:51.731Z,68.90
2019-04-29T19:34:20.620Z,69.80
2019-04-29T19:36:50.753Z,71.10
2019-04-29T19:39:21.715Z,71.80
2019-04-29T19:41:51.501Z,72.10
2019-04-29T19:44:19.918Z,72.20
2019-04-29T19:46:48.633Z,73.60
2019-04-29T19:49:17.429Z,75.70
2019-04-29T19:51:47.372Z,74.60
2019-04-29T19:54:16.993Z,76.10
2019-04-29T19:56:46.193Z,76.80
2019-04-29T19:59:16.985Z,78.80
2019-04-29T20:01:48.941Z,78.80
2019-04-29T20:04:23.367Z,78.80
2019-04-29T20:06:57.291Z,77.30
2019-04-29T20:09:24.159Z,73.30
2019-04-29T20:11:55.456Z,73.80
2019-04-29T20:14:27.866Z,72.40
2019-04-29T20:17:09.483Z,73.20
2019-04-29T20:19:39.895Z,73.10
2019-04-29T20:22:09.780Z,72.70
2019-04-29T20:24:38.591Z,73.20
2019-04-29T20:27:07.676Z,72.40
2019-04-29T20:29:38.322Z,73.40
2019-04-29T20:32:07.940Z,73.40
2019-04-29T20:34:36.803Z,73.90
2019-04-29T20:37:06.050Z,74.80
2019-04-29T20:39:35.721Z,74.80
2019-04-29T20:42:06.451Z,75.10
2019-04-29T20:44:36.789Z,74.50
2019-04-29T20:47:19.117Z,73.80
2019-04-29T20:49:38.636Z,74.40
2019-04-29T20:52:13.429Z,74.10
2019-04-29T20:54:40.091Z,74.90
2019-04-29T20:57:17.714Z,74.60
2019-04-29T20:59:42.197Z,75.00
2019-04-29T21:02:12.650Z,75.00
2019-04-29T21:04:46.464Z,75.00
2019-04-29T21:07:09.808Z,74.50
2019-04-29T21:09:38.566Z,74.10
2019-04-29T21:12:09.001Z,74.10
2019-04-29T21:14:39.096Z,73.80
2019-04-29T21:17:10.887Z,74.80
2019-04-29T21:19:37.984Z,75.40
2019-04-29T21:22:06.489Z,74.90
2019-04-29T21:24:35.420Z,75.60
2019-04-29T21:27:05.515Z,74.00
2019-04-29T21:29:35.815Z,74.90
2019-04-29T21:32:05.877Z,75.80
2019-04-29T21:34:38.547Z,74.50
2019-04-29T21:37:10.043Z,74.60
2019-04-29T21:39:46.806Z,76.50
2019-04-29T21:42:17.028Z,77.60
2019-04-29T21:44:45.820Z,76.90
2019-04-29T21:47:15.831Z,77.50
2019-04-29T21:49:45.672Z,75.00
2019-04-29T21:52:15.414Z,74.80
2019-04-29T21:54:44.599Z,75.20
2019-04-29T21:57:18.505Z,74.70
2019-04-29T21:59:48.593Z,75.40
2019-04-29T22:02:17.521Z,76.10
2019-04-29T22:04:47.025Z,77.30
2019-04-29T22:07:15.986Z,75.70
2019-04-29T22:09:50.268Z,77.30
2019-04-29T22:12:20.408Z,78.30
2019-04-29T22:14:53.000Z,77.40
2019-04-29T22:17:18.376Z,77.40
2019-04-29T22:19:46.835Z,77.40
2019-04-29T22:22:15.264Z,77.00
2019-04-29T22:24:45.491Z,76.70
2019-04-29T22:27:16.045Z,75.80
2019-04-29T22:29:45.418Z,75.00
2019-04-29T22:32:19.030Z,75.40
2019-04-29T22:34:45.237Z,75.20
2019-04-29T22:37:15.291Z,75.00
2019-04-29T22:39:44.016Z,76.70
2019-04-29T22:42:14.369Z,77.20
2019-04-29T22:44:43.158Z,77.00
2019-04-29T22:47:11.780Z,76.20
2019-04-29T22:49:40.545Z,76.30
2019-04-29T22:52:09.064Z,76.20
2019-04-29T22:54:37.977Z,76.40
2019-04-29T22:57:06.552Z,77.70
2019-04-29T22:59:35.446Z,77.30
2019-04-29T23:02:05.808Z,78.00
2019-04-29T23:04:35.087Z,77.80
2019-04-29T23:07:04.144Z,77.10
2019-04-29T23:09:32.573Z,75.50
2019-04-29T23:12:01.025Z,76.20
2019-04-29T23:14:29.800Z,78.10
2019-04-29T23:16:58.340Z,76.00
2019-04-29T23:19:26.781Z,76.80
2019-04-29T23:22:15.433Z,78.10
2019-04-29T23:24:57.209Z,77.50
2019-04-29T23:27:25.991Z,78.50
2019-04-29T23:29:54.588Z,77.10
2019-04-29T23:32:25.238Z,77.70
2019-04-29T23:34:55.026Z,78.30
2019-04-29T23:37:27.556Z,78.90
2019-04-29T23:39:55.777Z,78.20
2019-04-29T23:42:25.980Z,79.60
2019-04-29T23:44:55.046Z,79.10
2019-04-29T23:47:25.753Z,80.30
2019-04-29T23:49:54.400Z,80.00
2019-04-29T23:52:23.152Z,79.70
2019-04-29T23:54:51.608Z,79.80
2019-04-29T23:57:23.532Z,80.20
